Time;durP1;ratioP1;P1;durP2;ratioP2;P2;SDS_P1;SDS_P2;PMS_P1;PMS_P2;Temp;Humidity;BMP_temperature;BMP_pressure;BME280_temperature;BME280_humidity;BME280_pressure;Samples;Min_cycle;Max_cycle;Signal;HPM_P1;HPM_P2
2024/02/22 00:00:53;;;;;;;11.82;7.53;;;;;;;5.34;80.46;100022.13;4926948;28;20117;-95
2024/02/22 00:03:19;;;;;;;9.98;6.85;;;;;;;5.35;80.10;100014.91;4927001;28;20082;-95
2024/02/22 00:05:47;;;;;;;11.80;7.25;;;;;;;5.36;79.55;100005.88;4927908;28;20027;-96
2024/02/22 00:08:13;;;;;;;11.18;7.25;;;;;;;5.41;79.38;100009.50;4927939;28;20106;-94
2024/02/22 00:10:41;;;;;;;11.63;7.07;;;;;;;5.40;79.93;100007.91;4943236;28;20461;-94
2024/02/22 00:13:07;;;;;;;11.25;7.35;;;;;;;5.41;79.25;100008.72;4927752;28;20019;-95
2024/02/22 00:15:33;;;;;;;14.88;7.38;;;;;;;5.42;79.33;100013.84;4943273;28;20031;-96
2024/02/22 00:18:03;;;;;;;18.55;12.30;;;;;;;5.38;79.39;99993.94;4928288;28;20054;-95
2024/02/22 00:20:29;;;;;;;23.52;13.65;;;;;;;5.37;79.59;99988.81;4928139;28;20074;-95
2024/02/22 00:22:54;;;;;;;20.23;13.45;;;;;;;5.45;78.63;100004.56;4926703;28;20031;-96
2024/02/22 00:25:21;;;;;;;18.90;11.95;;;;;;;5.48;78.94;99988.13;4928051;28;20023;-96
2024/02/22 00:27:47;;;;;;;9.43;6.93;;;;;;;5.39;78.84;99997.44;4927986;28;20023;-95
2024/02/22 00:30:13;;;;;;;9.90;6.25;;;;;;;5.33;80.06;99990.28;4943246;28;20027;-96
2024/02/22 00:32:44;;;;;;;12.68;7.05;;;;;;;5.39;79.27;99994.75;4927432;28;20481;-94
2024/02/22 00:35:11;;;;;;;11.00;6.88;;;;;;;5.17;80.00;99981.00;4947329;28;20022;-95
2024/02/22 00:37:37;;;;;;;11.07;7.20;;;;;;;5.10;79.71;99982.88;4930988;28;20030;-94
2024/02/22 00:40:05;;;;;;;10.57;6.93;;;;;;;5.05;80.25;99989.69;4947139;28;20026;-95
2024/02/22 00:42:31;;;;;;;14.35;7.50;;;;;;;5.04;79.34;99976.56;4945835;28;20026;-95
2024/02/22 00:44:57;;;;;;;9.82;6.47;;;;;;;5.16;79.01;99976.66;4930483;28;20023;-95
2024/02/22 00:47:23;;;;;;;9.15;6.60;;;;;;;5.18;79.87;99977.28;4947334;28;20039;-95
2024/02/22 00:49:50;;;;;;;9.35;6.50;;;;;;;5.15;79.38;99967.03;4946102;28;20050;-95
2024/02/22 00:52:16;;;;;;;12.27;7.43;;;;;;;5.24;79.34;99981.75;4931554;28;20074;-95
2024/02/22 00:54:42;;;;;;;12.15;6.60;;;;;;;4.95;79.97;99965.34;4931168;28;20485;-95
2024/02/22 00:57:11;;;;;;;9.23;6.50;;;;;;;4.82;79.99;99968.09;4946770;28;20026;-94
2024/02/22 00:59:37;;;;;;;10.95;6.85;;;;;;;4.84;79.79;99976.72;4930662;28;20061;-95
2024/02/22 01:02:03;;;;;;;10.52;6.90;;;;;;;4.85;80.62;99976.47;4930825;28;20046;-96
2024/02/22 01:04:29;;;;;;;10.35;6.07;;;;;;;4.85;79.56;99957.00;4930568;28;20026;-95
2024/02/22 01:06:56;;;;;;;8.90;5.60;;;;;;;4.78;80.04;99961.56;4930210;28;20571;-95
2024/02/22 01:09:23;;;;;;;7.47;5.90;;;;;;;4.73;79.67;99964.88;4930039;28;20457;-95
2024/02/22 01:11:50;;;;;;;9.63;5.60;;;;;;;4.75;79.15;99943.31;4929927;28;20018;-95
2024/02/22 01:14:15;;;;;;;8.05;5.72;;;;;;;4.90;79.25;99948.31;4929937;28;20030;-95
2024/02/22 01:16:45;;;;;;;9.45;6.38;;;;;;;4.79;79.14;99941.84;4944647;28;20408;-94
2024/02/22 01:19:13;;;;;;;7.43;5.20;;;;;;;4.93;79.04;99972.75;4944376;28;20034;-96
2024/02/22 01:21:39;;;;;;;7.22;4.90;;;;;;;4.77;79.32;99951.91;4943846;28;20113;-95
2024/02/22 01:24:06;;;;;;;6.63;4.90;;;;;;;4.68;79.38;99953.22;4929517;28;20058;-95
2024/02/22 01:26:32;;;;;;;7.82;4.50;;;;;;;4.52;79.17;99944.69;4944878;28;20030;-94
2024/02/22 01:28:58;;;;;;;6.55;4.47;;;;;;;4.39;79.52;99944.78;4944771;28;20081;-95
2024/02/22 01:31:25;;;;;;;6.03;4.80;;;;;;;4.44;79.33;99952.94;4945211;28;20029;-95
2024/02/22 01:33:50;;;;;;;6.68;4.97;;;;;;;4.45;78.74;99935.91;4945141;28;20030;-95
2024/02/22 01:36:17;;;;;;;8.35;5.35;;;;;;;4.42;79.13;99950.50;4929771;28;20390;-96
2024/02/22 01:38:43;;;;;;;7.32;4.28;;;;;;;4.36;79.32;99955.88;4945377;28;20027;-95
2024/02/22 01:41:08;;;;;;;6.43;4.35;;;;;;;4.15;79.79;99928.50;4929617;28;20037;-96
2024/02/22 01:43:34;;;;;;;6.25;4.10;;;;;;;4.11;79.25;99927.28;4931965;28;20021;-96
2024/02/22 01:46:02;;;;;;;5.93;4.10;;;;;;;4.06;79.85;99932.41;4946153;28;20046;-96
2024/02/22 01:48:30;;;;;;;6.20;4.20;;;;;;;4.04;80.28;99932.63;4929813;28;20033;-96
2024/02/22 01:50:56;;;;;;;6.18;4.32;;;;;;;4.03;79.85;99925.69;4928893;28;20061;-95
2024/02/22 01:53:23;;;;;;;8.00;5.00;;;;;;;4.19;79.70;99947.53;4945733;28;20035;-95
2024/02/22 01:55:52;;;;;;;5.88;3.60;;;;;;;4.08;79.32;99927.69;4945366;28;20022;-96
2024/02/22 01:58:19;;;;;;;4.95;3.67;;;;;;;3.93;79.99;99930.63;4945593;28;20018;-94
2024/02/22 02:00:44;;;;;;;5.20;3.83;;;;;;;4.09;78.98;99956.00;4945075;28;20458;-96
2024/02/22 02:03:10;;;;;;;6.78;4.30;;;;;;;4.03;79.02;99943.53;4929930;28;20077;-96
2024/02/22 02:05:37;;;;;;;6.00;3.97;;;;;;;4.10;79.31;99938.97;4945317;28;20027;-94
2024/02/22 02:08:04;;;;;;;6.45;4.18;;;;;;;3.85;80.11;99937.00;4944901;28;20117;-96
2024/02/22 02:10:31;;;;;;;6.70;4.25;;;;;;;4.09;80.04;99947.16;4929574;28;20042;-95
2024/02/22 02:13:06;;;;;;;6.45;4.15;;;;;;;4.17;79.52;99942.44;4929465;28;20035;-95
2024/02/22 02:15:32;;;;;;;5.93;3.85;;;;;;;3.88;79.55;99930.47;4944483;28;20041;-95
2024/02/22 02:18:00;;;;;;;5.55;3.88;;;;;;;3.96;79.47;99924.06;4928784;28;20093;-95
2024/02/22 02:20:32;;;;;;;5.60;3.63;;;;;;;3.90;79.05;99923.09;4927724;28;20034;-95
2024/02/22 02:23:20;;;;;;;6.70;4.55;;;;;;;4.04;79.53;99953.13;4928557;28;20034;-96
2024/02/22 02:25:46;;;;;;;6.30;3.88;;;;;;;3.81;79.11;99917.16;4960593;28;20041;-95
2024/02/22 02:28:13;;;;;;;5.68;4.07;;;;;;;3.87;79.43;99922.69;4928046;28;20031;-95
2024/02/22 02:30:38;;;;;;;4.97;3.92;;;;;;;3.72;79.34;99912.28;4928337;28;20031;-96
2024/02/22 02:33:04;;;;;;;5.90;3.97;;;;;;;3.75;79.13;99927.84;4928207;28;20034;-96
2024/02/22 02:35:30;;;;;;;5.35;3.75;;;;;;;3.74;78.89;99918.22;4928412;28;20019;-96
2024/02/22 02:37:57;;;;;;;5.85;3.40;;;;;;;3.84;79.53;99935.38;4944961;28;20027;-95
2024/02/22 02:40:24;;;;;;;5.60;3.50;;;;;;;3.92;78.95;99944.16;4944142;28;20027;-96
2024/02/22 02:42:50;;;;;;;6.07;3.72;;;;;;;3.96;79.78;99940.03;4943951;28;20062;-95
2024/02/22 02:45:17;;;;;;;5.03;3.53;;;;;;;3.98;79.74;99932.66;4943738;28;20041;-95
2024/02/22 02:47:42;;;;;;;5.28;3.80;;;;;;;3.78;79.49;99922.91;4943624;28;20121;-95
2024/02/22 02:50:08;;;;;;;6.03;4.28;;;;;;;3.70;79.54;99932.97;4927752;28;20406;-96
2024/02/22 02:52:34;;;;;;;6.95;3.97;;;;;;;3.63;79.67;99930.31;4927632;28;20035;-95
2024/02/22 02:54:59;;;;;;;6.47;4.05;;;;;;;3.58;78.89;99922.16;4927353;28;20030;-96
2024/02/22 02:57:25;;;;;;;6.40;4.55;;;;;;;3.62;78.49;99932.16;4927904;28;20033;-96
2024/02/22 02:59:51;;;;;;;5.63;4.03;;;;;;;3.41;78.81;99927.91;4927825;28;20019;-96
2024/02/22 03:02:17;;;;;;;6.53;4.20;;;;;;;3.37;78.70;99933.88;4943608;28;20023;-96
2024/02/22 03:04:42;;;;;;;6.40;4.45;;;;;;;3.31;78.90;99930.19;4927534;28;20034;-95
2024/02/22 03:07:08;;;;;;;5.55;4.30;;;;;;;3.47;78.49;99931.59;4927873;28;20486;-96
2024/02/22 03:09:34;;;;;;;5.90;4.20;;;;;;;3.51;78.78;99950.63;4928115;28;20050;-96
2024/02/22 03:12:00;;;;;;;7.72;4.80;;;;;;;3.34;78.77;99921.81;4943300;28;20061;-95
2024/02/22 03:14:25;;;;;;;8.82;4.80;;;;;;;3.34;78.57;99927.13;4927463;28;20102;-96
2024/02/22 03:16:52;;;;;;;8.13;4.82;;;;;;;3.32;78.50;99929.19;4927616;28;20027;-96
2024/02/22 03:19:18;;;;;;;6.07;4.05;;;;;;;3.36;79.20;99951.69;4943695;28;20031;-95
2024/02/22 03:21:46;;;;;;;8.00;5.00;;;;;;;3.17;78.95;99931.22;4927401;28;20082;-96
2024/02/22 03:24:11;;;;;;;10.32;5.05;;;;;;;3.23;78.87;99939.19;4942970;28;20034;-96
2024/02/22 03:26:37;;;;;;;7.60;4.47;;;;;;;3.39;78.94;99963.75;4927755;28;20393;-95
2024/02/22 03:29:03;;;;;;;7.80;4.72;;;;;;;3.30;79.33;99941.03;4943752;28;20019;-96
2024/02/22 03:31:29;;;;;;;6.55;3.80;;;;;;;3.31;79.07;99932.84;4927237;28;20046;-96
2024/02/22 03:33:54;;;;;;;8.60;4.53;;;;;;;3.13;79.20;99920.16;4927703;28;20493;-96
2024/02/22 03:36:20;;;;;;;7.20;4.47;;;;;;;3.27;79.66;99949.44;4927451;28;20478;-95
2024/02/22 03:38:45;;;;;;;6.25;4.25;;;;;;;3.08;79.58;99916.50;4927152;28;20081;-95
2024/02/22 03:41:21;;;;;;;7.00;4.15;;;;;;;3.22;78.89;99942.09;4927428;28;20656;-94
2024/02/22 03:43:47;;;;;;;5.97;4.22;;;;;;;3.28;78.92;99943.91;4926778;28;20027;-95
2024/02/22 03:46:13;;;;;;;7.90;4.72;;;;;;;3.09;78.71;99918.13;4927243;28;20035;-95
2024/02/22 03:48:41;;;;;;;6.43;4.32;;;;;;;3.16;78.82;99921.63;4926731;28;20025;-96
2024/02/22 03:51:06;;;;;;;7.28;4.57;;;;;;;3.38;78.11;99949.63;4927515;28;20052;-96
2024/02/22 03:53:32;;;;;;;6.13;4.15;;;;;;;3.32;78.46;99953.13;4926812;28;20031;-96
2024/02/22 03:55:58;;;;;;;5.40;3.80;;;;;;;3.18;78.42;99925.69;4926882;28;20027;-95
2024/02/22 03:58:23;;;;;;;9.18;5.30;;;;;;;3.07;78.95;99915.66;4926770;28;20046;-96
2024/02/22 04:00:49;;;;;;;6.72;4.45;;;;;;;3.09;78.59;99928.78;4927373;28;20033;-95
2024/02/22 04:03:14;;;;;;;8.43;4.82;;;;;;;3.12;78.65;99947.00;4927203;28;20023;-95
2024/02/22 04:05:40;;;;;;;9.88;5.22;;;;;;;2.95;78.70;99926.13;4927255;28;20026;-95
2024/02/22 04:08:05;;;;;;;10.88;5.07;;;;;;;3.04;79.03;99937.38;4930528;28;20101;-96
2024/02/22 04:10:31;;;;;;;9.80;6.00;;;;;;;2.95;78.59;99920.81;4932117;28;20054;-95
2024/02/22 04:12:56;;;;;;;8.60;5.43;;;;;;;2.95;78.33;99907.50;4931083;28;20030;-96
2024/02/22 04:15:22;;;;;;;5.55;4.32;;;;;;;2.97;78.50;99910.78;4931159;28;20026;-94
2024/02/22 04:17:48;;;;;;;5.65;3.88;;;;;;;3.15;78.57;99919.97;4930529;28;20072;-96
2024/02/22 04:20:13;;;;;;;8.23;4.57;;;;;;;3.13;79.03;99906.06;4930196;28;20023;-95
2024/02/22 04:22:49;;;;;;;6.60;4.47;;;;;;;3.12;78.82;99896.44;4929475;28;20122;-95
2024/02/22 04:25:14;;;;;;;9.38;4.80;;;;;;;3.16;78.71;99897.66;4927678;29;20066;-96
2024/02/22 04:27:40;;;;;;;7.63;4.85;;;;;;;3.16;77.87;99901.13;4911828;29;20027;-94
2024/02/22 04:30:09;;;;;;;7.18;4.72;;;;;;;3.11;77.84;99916.06;4910986;29;20023;-95
2024/02/22 04:32:35;;;;;;;7.70;4.72;;;;;;;2.87;78.24;99885.63;4912215;29;20019;-95
2024/02/22 04:35:02;;;;;;;9.85;5.88;;;;;;;2.75;78.40;99882.75;4911387;29;20037;-95
2024/02/22 04:37:28;;;;;;;8.88;5.38;;;;;;;2.68;78.62;99889.91;4911924;29;20054;-95
2024/02/22 04:39:53;;;;;;;9.90;4.88;;;;;;;2.72;78.88;99907.06;4910302;29;20074;-94
2024/02/22 04:42:19;;;;;;;9.18;5.13;;;;;;;2.72;77.94;99897.28;4910815;29;20095;-95
2024/02/22 04:44:45;;;;;;;7.88;5.28;;;;;;;2.83;78.13;99891.34;4911540;29;20024;-94
2024/02/22 04:47:12;;;;;;;7.25;4.60;;;;;;;2.89;78.75;99888.91;4911135;29;20031;-96
2024/02/22 04:49:38;;;;;;;9.85;5.60;;;;;;;2.77;78.22;99886.03;4911175;29;20055;-95
2024/02/22 04:52:03;;;;;;;9.23;5.50;;;;;;;2.83;78.30;99919.78;4911732;29;20026;-95
2024/02/22 04:54:32;;;;;;;9.95;5.63;;;;;;;2.65;77.99;99892.97;4911260;29;20126;-95
2024/02/22 04:56:58;;;;;;;11.75;6.13;;;;;;;2.51;78.94;99874.38;4918799;29;20490;-95
2024/02/22 04:59:26;;;;;;;12.05;5.40;;;;;;;2.60;79.07;99890.94;4925454;28;20039;-96
2024/02/22 05:01:51;;;;;;;9.93;6.15;;;;;;;2.62;78.76;99903.00;4935731;28;20019;-96
2024/02/22 05:04:18;;;;;;;9.55;6.28;;;;;;;2.70;79.13;99909.13;4933095;28;20034;-96
2024/02/22 05:06:48;;;;;;;13.52;6.80;;;;;;;2.73;78.00;99916.72;4945913;29;20035;-96
2024/02/22 05:09:13;;;;;;;146.95;61.00;;;;;;;2.58;78.09;99896.44;4946429;29;20034;-96
2024/02/22 05:11:48;;;;;;;34.15;18.58;;;;;;;2.70;78.10;99917.09;4915547;28;20463;-96
2024/02/22 05:14:15;;;;;;;15.15;9.68;;;;;;;2.54;78.04;99897.88;4935315;28;20028;-96
2024/02/22 05:16:40;;;;;;;56.95;48.30;;;;;;;2.48;78.29;99896.03;4932059;28;20015;-96
2024/02/22 05:19:06;;;;;;;17.48;8.77;;;;;;;2.48;78.07;99905.84;4931829;28;20114;-96
2024/02/22 05:21:32;;;;;;;15.18;7.43;;;;;;;2.50;78.31;99909.94;4946773;28;20026;-95
2024/02/22 05:24:00;;;;;;;11.82;7.10;;;;;;;2.54;77.14;99915.66;4933857;28;20026;-96
2024/02/22 05:29:59;;;;;;;10.32;7.10;;;;;;;2.58;78.13;99923.03;4982496;28;20093;-96
2024/02/22 05:32:33;;;;;;;13.80;7.75;;;;;;;2.45;78.31;99907.06;4931370;28;20058;-96
2024/02/22 05:35:08;;;;;;;20.90;9.77;;;;;;;2.41;78.38;99900.53;4951898;28;20062;-96
2024/02/22 05:37:53;;;;;;;23.92;10.70;;;;;;;2.66;78.02;99923.84;4949539;28;20058;-96
2024/02/22 05:40:23;;;;;;;19.25;9.10;;;;;;;2.68;77.98;99932.44;4966301;28;20062;-96
2024/02/22 05:42:50;;;;;;;22.55;8.98;;;;;;;2.71;78.27;99924.06;4983443;28;20035;-96
2024/02/22 05:45:41;;;;;;;15.45;8.30;;;;;;;2.65;78.69;99898.28;4953820;28;20121;-96
2024/02/22 05:48:15;;;;;;;10.02;6.00;;;;;;;2.82;78.21;99915.47;4951201;28;20103;-96
2024/02/22 05:50:51;;;;;;;14.35;6.45;;;;;;;2.74;78.47;99905.03;4955421;28;20030;-96
2024/02/22 05:53:17;;;;;;;11.90;7.07;;;;;;;2.78;78.02;99911.56;4951862;28;20039;-96
2024/02/22 05:55:42;;;;;;;12.80;8.30;;;;;;;2.90;78.47;99925.09;4936354;28;20496;-96
2024/02/22 05:58:19;;;;;;;15.77;8.73;;;;;;;2.72;78.57;99918.56;4949041;28;20031;-96
2024/02/22 06:01:11;;;;;;;11.98;6.88;;;;;;;2.79;78.53;99922.03;4935652;28;20031;-96
2024/02/22 06:03:37;;;;;;;11.70;7.85;;;;;;;2.59;78.97;99905.22;4955510;28;20030;-96
2024/02/22 06:06:03;;;;;;;12.93;7.30;;;;;;;2.61;79.88;99909.34;4934538;28;20113;-96
2024/02/22 06:11:21;;;;;;;268.80;129.90;;;;;;;2.79;78.54;99915.91;4970219;28;20098;-96
2024/02/22 06:15:01;;;;;;;;;;;;;;;;;;;;;
2024/02/22 06:17:28;;;;;;;13.88;7.78;;;;;;;3.01;78.55;99927.16;4883373;29;20120;-95
2024/02/22 06:23:18;;;;;;;15.23;7.80;;;;;;;3.01;79.77;99922.66;4892551;29;20048;-95
2024/02/22 06:29:55;;;;;;;;;;;;;;;;;;;;;
2024/02/22 06:53:31;;;;;;;13.82;9.07;;;;;;;3.35;80.86;99928.75;5350518;23;20123;-95
2024/02/22 07:11:05;;;;;;;14.32;9.15;;;;;;;4.90;76.80;99932.31;4923469;29;20483;-96
2024/02/22 07:13:32;;;;;;;12.80;7.85;;;;;;;4.91;76.58;99917.97;4897319;29;20035;-95
2024/02/22 07:16:04;;;;;;;11.98;7.82;;;;;;;5.05;76.27;99911.47;4892442;29;20422;-96
2024/02/22 07:27:41;;;;;;;;;;;;;;;;;;;;;
2024/02/22 07:35:19;;;;;;;7.05;4.70;;;;;;;6.26;70.75;99912.59;4980868;28;20054;-94
2024/02/22 07:37:45;;;;;;;11.75;5.28;;;;;;;6.31;71.33;99905.75;4936153;28;20093;-96
2024/02/22 07:40:19;;;;;;;8.95;5.05;;;;;;;6.31;71.00;99895.06;4933635;28;20042;-95
2024/02/22 07:42:47;;;;;;;12.23;6.25;;;;;;;6.45;70.32;99892.00;4940992;28;20022;-96
2024/02/22 07:45:32;;;;;;;12.27;8.48;;;;;;;6.60;70.46;99891.56;4947344;28;20031;-96
2024/02/22 07:48:09;;;;;;;10.30;6.68;;;;;;;6.67;70.61;99891.47;4949653;28;20035;-96
2024/02/22 07:50:37;;;;;;;12.70;5.88;;;;;;;6.81;68.40;99894.75;4967088;28;20027;-95
2024/02/22 07:53:03;;;;;;;10.98;5.93;;;;;;;6.79;67.95;99881.59;4946910;28;20049;-96
2024/02/22 07:55:31;;;;;;;15.45;7.43;;;;;;;6.82;68.90;99878.44;4936660;28;20023;-96
2024/02/22 07:58:19;;;;;;;11.25;5.53;;;;;;;7.04;69.55;99902.78;4937327;28;20027;-96
2024/02/22 08:00:53;;;;;;;9.23;5.82;;;;;;;7.02;68.58;99883.47;4950542;28;20050;-96
2024/02/22 08:03:23;;;;;;;10.80;5.78;;;;;;;6.99;69.40;99865.19;4980531;28;20031;-95
2024/02/22 08:05:58;;;;;;;9.90;5.45;;;;;;;7.02;68.23;99867.41;4940583;28;20030;-96
2024/02/22 08:08:35;;;;;;;9.43;5.35;;;;;;;7.34;68.05;99893.00;4960353;28;20027;-96
2024/02/22 08:11:13;;;;;;;10.10;6.00;;;;;;;7.33;68.39;99864.59;4947303;28;20030;-96
2024/02/22 08:14:18;;;;;;;;;;;;;;;;;;;;;
2024/02/22 08:22:32;;;;;;;11.30;5.47;;;;;;;7.65;66.73;99876.53;4932284;28;20427;-95
2024/02/22 08:25:14;;;;;;;10.90;5.35;;;;;;;7.69;66.52;99871.50;4906033;29;20519;-96
2024/02/22 08:27:42;;;;;;;28.38;17.98;;;;;;;7.90;66.28;99875.41;4905677;29;20042;-96
2024/02/22 08:30:15;;;;;;;15.27;9.88;;;;;;;7.99;67.14;99868.63;4898591;29;20099;-96
2024/02/22 08:33:08;;;;;;;73.00;45.15;;;;;;;8.12;65.96;99862.16;4903333;29;20032;-96
2024/02/22 08:35:41;;;;;;;14.73;8.35;;;;;;;8.24;66.08;99862.13;4923815;29;20051;-96
2024/02/22 08:41:12;;;;;;;13.23;6.68;;;;;;;8.74;63.07;99865.94;4951373;28;20135;-96
2024/02/22 08:50:04;;;;;;;8.65;3.90;;;;;;;9.23;59.32;99848.13;4951558;28;20028;-96
2024/02/22 09:00:25;;;;;;;13.18;6.47;;;;;;;9.61;59.91;99838.41;4970022;29;20062;-96
2024/02/22 09:13:11;;;;;;;11.13;5.35;;;;;;;9.72;57.05;99828.59;4942565;28;20049;-96
2024/02/22 09:15:38;;;;;;;10.60;5.25;;;;;;;9.84;57.13;99833.84;4908371;29;20483;-96
2024/02/22 09:18:26;;;;;;;7.28;3.70;;;;;;;9.95;56.17;99818.63;4887909;29;20042;-96
2024/02/22 09:20:53;;;;;;;5.75;3.95;;;;;;;10.18;55.71;99823.69;4893546;29;20040;-96
2024/02/22 09:23:21;;;;;;;11.57;4.75;;;;;;;10.39;56.05;99832.78;4882961;29;20036;-96
2024/02/22 09:25:57;;;;;;;6.78;4.68;;;;;;;10.64;54.28;99851.03;4883921;29;20040;-96
2024/02/22 09:28:30;;;;;;;25.08;12.82;;;;;;;10.60;53.07;99828.38;4913460;29;20052;-96
2024/02/22 09:31:22;;;;;;;18.48;6.90;;;;;;;10.71;52.87;99824.72;4945872;29;20035;-96
2024/02/22 09:40:43;;;;;;;7.90;4.22;;;;;;;11.08;49.44;99825.75;4873789;29;20052;-96
2024/02/22 09:43:08;;;;;;;;;;;;;;;11.12;47.54;99816.91;4883461;29;20123;-96
2024/02/22 09:45:37;;;;;;;9.15;4.30;;;;;;;11.10;45.74;99799.34;4877565;29;20398;-95
2024/02/22 09:48:03;;;;;;;9.95;3.08;;;;;;;11.09;44.35;99795.84;4856488;29;20029;-95
2024/02/22 09:50:31;;;;;;;4.43;3.20;;;;;;;11.20;41.34;99782.44;4854226;29;20089;-94
2024/02/22 09:53:07;;;;;;;5.88;3.20;;;;;;;11.27;42.13;99786.53;4843079;29;20045;-96
2024/02/22 10:02:24;;;;;;;5.68;3.40;;;;;;;11.45;45.08;99771.75;4968540;28;20612;-96
2024/02/22 10:05:04;;;;;;;13.50;4.32;;;;;;;11.68;43.55;99783.97;4952549;28;20039;-96
2024/02/22 10:07:39;;;;;;;6.90;3.60;;;;;;;11.58;43.10;99751.59;4938858;28;20046;-96
2024/02/22 10:10:51;;;;;;;;;;;;;;;;;;;;;
2024/02/22 10:16:49;;;;;;;6.50;2.35;;;;;;;11.77;40.28;99738.41;4913216;29;20033;-96
2024/02/22 11:10:05;;;;;;;3.15;2.00;;;;;;;12.90;38.82;99662.69;4929535;29;20059;-96
2024/02/22 11:12:33;;;;;;;3.20;2.13;;;;;;;12.94;37.43;99659.16;4895990;29;20503;-96
2024/02/22 11:15:25;;;;;;;9.40;2.70;;;;;;;12.74;38.74;99638.44;4860813;29;20115;-96
2024/02/22 11:17:57;;;;;;;8.57;3.08;;;;;;;12.82;40.11;99639.75;4886136;29;20040;-96
2024/02/22 11:20:34;;;;;;;8.20;2.75;;;;;;;12.89;40.46;99628.66;4888695;29;20042;-96
2024/02/22 11:23:21;;;;;;;6.72;3.13;;;;;;;13.05;40.73;99654.53;4886960;29;20036;-93
2024/02/22 11:25:52;;;;;;;3.58;2.15;;;;;;;12.75;39.68;99617.63;4866619;29;20441;-94
2024/02/22 11:28:21;;;;;;;7.20;2.40;;;;;;;12.75;40.22;99631.13;4882110;29;20044;-95
2024/02/22 11:30:52;;;;;;;7.20;2.47;;;;;;;12.87;39.22;99620.81;4880995;29;20124;-96
2024/02/22 11:33:22;;;;;;;5.75;2.38;;;;;;;12.87;38.36;99615.41;4865681;29;20036;-96
2024/02/22 11:38:27;;;;;;;7.10;2.00;;;;;;;12.93;38.04;99608.09;4968111;28;20130;-96
2024/02/22 11:40:53;;;;;;;3.22;2.00;;;;;;;12.93;38.43;99608.09;4929241;29;20035;-95
2024/02/22 11:43:38;;;;;;;2.75;1.80;;;;;;;12.98;38.09;99601.84;4920186;29;20055;-95
2024/02/22 11:46:06;;;;;;;2.40;1.80;;;;;;;12.99;37.28;99606.16;4941203;29;20074;-96
2024/02/22 12:17:06;;;;;;;4.22;3.35;;;;;;;13.56;36.72;99566.06;4926605;29;20563;-96
2024/02/22 12:19:46;;;;;;;;;;;;;;;;;;;;;
2024/02/22 12:26:25;;;;;;;7.78;2.40;;;;;;;13.51;36.97;99539.88;4848558;29;20021;-96
2024/02/22 12:29:41;;;;;;;3.45;2.10;;;;;;;13.47;35.69;99542.34;4833642;29;20495;-96
2024/02/22 12:35:29;;;;;;;4.27;2.00;;;;;;;13.65;35.52;99524.56;4865370;29;20085;-95
2024/02/22 12:37:57;;;;;;;5.03;2.25;;;;;;;13.64;35.85;99517.56;4839035;29;20030;-95
2024/02/22 12:40:30;;;;;;;2.65;1.95;;;;;;;13.83;36.13;99514.94;4833343;29;20116;-91
2024/02/22 12:42:55;;;;;;;5.70;2.30;;;;;;;13.95;35.16;99528.09;4903001;29;20053;-95
2024/02/22 12:45:24;;;;;;;5.20;2.25;;;;;;;13.92;34.88;99499.69;4879644;29;20031;-95
2024/02/22 12:47:53;;;;;;;6.60;2.17;;;;;;;14.10;35.25;99516.28;4877106;29;20042;-94
2024/02/22 12:50:20;;;;;;;2.63;1.75;;;;;;;14.06;34.49;99507.13;4888542;29;20039;-96
2024/02/22 12:53:32;;;;;;;7.97;2.70;;;;;;;14.13;35.07;99492.16;4907628;29;20476;-96
2024/02/22 12:55:57;;;;;;;4.35;2.47;;;;;;;14.18;35.04;99499.41;4900115;29;20031;-96
2024/02/22 12:58:29;;;;;;;6.78;2.63;;;;;;;14.24;35.05;99486.59;4889242;29;20040;-96
2024/02/22 13:00:54;;;;;;;10.25;3.08;;;;;;;14.15;35.86;99481.00;4875007;29;20096;-96
2024/02/22 13:03:21;;;;;;;7.20;2.60;;;;;;;14.28;33.63;99488.44;4898031;29;20475;-94
2024/02/22 13:05:46;;;;;;;3.22;2.08;;;;;;;14.32;33.27;99481.34;4894342;29;20094;-95
2024/02/22 13:08:14;;;;;;;2.70;2.10;;;;;;;14.40;33.21;99488.03;4898102;29;20517;-95
2024/02/22 13:14:09;;;;;;;7.45;2.95;;;;;;;14.44;34.46;99471.97;4911311;29;20046;-93
2024/02/22 13:16:35;;;;;;;6.35;2.83;;;;;;;14.51;34.17;99467.03;4901001;29;20036;-93
2024/02/22 13:28:00;;;;;;;2.95;1.90;;;;;;;14.60;33.17;99438.19;5258647;23;20047;-95
2024/02/22 13:30:35;;;;;;;6.60;2.45;;;;;;;14.70;34.07;99440.75;4945999;29;20036;-95
2024/02/22 13:33:29;;;;;;;2.70;2.00;;;;;;;14.85;33.95;99447.84;4934374;28;20030;-96
2024/02/22 13:55:43;;;;;;;7.75;2.15;;;;;;;14.73;31.71;99395.97;4300624;23;20038;-96
2024/02/22 13:58:11;;;;;;;3.67;1.80;;;;;;;14.70;31.88;99394.66;4936558;29;20062;-96
2024/02/22 14:00:47;;;;;;;;;;;;;;;;;;;;;
2024/02/22 14:16:07;;;;;;;7.03;3.20;;;;;;;14.52;32.42;99365.66;4923867;28;20092;-96
2024/02/22 14:18:44;;;;;;;8.40;3.95;;;;;;;14.56;32.22;99391.09;4890054;29;20040;-96
2024/02/22 14:21:38;;;;;;;9.77;3.35;;;;;;;14.37;32.72;99364.00;4883342;29;20038;-96
2024/02/22 14:24:40;;;;;;;8.65;3.20;;;;;;;14.40;33.26;99355.28;4906989;29;20023;-96
2024/02/22 14:27:11;;;;;;;11.98;4.40;;;;;;;14.45;33.65;99357.91;4885280;29;20048;-96
2024/02/22 14:30:09;;;;;;;;;;;;;;;;;;;;;
2024/02/22 14:36:34;;;;;;;14.00;4.22;;;;;;;14.53;34.20;99346.41;4936581;29;20056;-96
2024/02/22 14:39:31;;;;;;;11.30;3.65;;;;;;;14.65;33.78;99369.53;5062622;23;20118;-96
2024/02/22 14:42:29;;;;;;;8.43;2.85;;;;;;;14.50;33.07;99346.97;4849145;29;20058;-96
2024/02/22 14:44:57;;;;;;;8.50;4.20;;;;;;;14.57;33.74;99357.50;4821308;29;20054;-96
2024/02/22 14:47:35;;;;;;;;;;;;;;;;;;;;;
2024/02/22 14:50:03;;;;;;;4.72;2.05;;;;;;;14.44;31.93;99364.41;4849020;29;21124;-96
2024/02/22 14:52:30;;;;;;;5.97;2.70;;;;;;;14.36;32.43;99362.41;4854935;29;20033;-95
2024/02/22 14:54:59;;;;;;;12.77;3.30;;;;;;;14.23;32.93;99353.06;4848763;29;20077;-96
2024/02/22 14:57:27;;;;;;;5.68;2.10;;;;;;;14.33;31.56;99371.88;4858521;29;20130;-96
2024/02/22 15:00:14;;;;;;;10.02;4.60;;;;;;;14.19;32.57;99360.19;4868243;29;20041;-96
2024/02/22 15:06:16;;;;;;;12.77;3.10;;;;;;;14.08;33.87;99370.34;1059462;23;20260;-95
2024/02/22 15:08:42;;;;;;;6.18;2.60;;;;;;;13.92;33.14;99352.69;4944058;28;20039;-96
2024/02/22 15:11:08;;;;;;;13.85;3.17;;;;;;;13.94;33.67;99354.03;4933746;28;20118;-96
2024/02/22 15:13:55;;;;;;;;;;;;;;;;;;;;;
2024/02/22 15:16:23;;;;;;;26.33;3.88;;;;;;;13.93;33.23;99351.63;4956886;28;20031;-96
2024/02/22 15:19:17;;;;;;;7.18;3.28;;;;;;;14.07;33.79;99371.47;4946310;28;20034;-96
2024/02/22 15:21:46;;;;;;;19.05;5.13;;;;;;;13.94;34.20;99345.91;4983885;28;20120;-96
2024/02/22 15:24:11;;;;;;;13.13;4.13;;;;;;;13.86;34.31;99349.28;4947368;28;20027;-93
2024/02/22 15:26:40;;;;;;;8.10;2.70;;;;;;;13.82;33.12;99359.06;4926708;29;20019;-94
2024/02/22 15:29:06;;;;;;;9.40;3.42;;;;;;;13.66;33.41;99341.41;4934083;28;20062;-93
2024/02/22 15:31:32;;;;;;;8.85;4.20;;;;;;;13.67;33.71;99343.00;4925205;29;20035;-94
2024/02/22 15:33:58;;;;;;;13.20;3.20;;;;;;;13.68;34.28;99356.25;4931307;28;20065;-94
2024/02/22 15:36:27;;;;;;;12.30;3.35;;;;;;;13.62;35.03;99352.00;4939549;28;20085;-95
2024/02/22 15:38:55;;;;;;;21.58;4.40;;;;;;;13.54;34.78;99349.94;4960614;28;20022;-95
2024/02/22 15:41:21;;;;;;;20.17;5.80;;;;;;;13.41;36.16;99340.63;4929424;28;20038;-92
2024/02/22 15:43:46;;;;;;;15.35;5.40;;;;;;;13.26;36.03;99346.97;4944602;28;20033;-93
2024/02/22 15:46:17;;;;;;;9.23;4.18;;;;;;;13.25;35.17;99333.72;4926275;28;20027;-94
2024/02/22 15:48:43;;;;;;;22.27;5.68;;;;;;;13.22;35.37;99345.09;4927448;28;20046;-94
2024/02/22 15:51:09;;;;;;;14.48;5.10;;;;;;;13.18;35.90;99344.88;4926282;28;20031;-93
2024/02/22 15:53:34;;;;;;;12.02;5.13;;;;;;;13.13;35.63;99353.03;4922956;28;20039;-94
2024/02/22 15:56:14;;;;;;;;;;;;;;;;;;;;;
2024/02/22 15:58:43;;;;;;;10.50;3.78;;;;;;;13.03;35.05;99343.16;4945263;28;20101;-95
2024/02/22 16:03:57;;;;;;;13.93;5.10;;;;;;;12.88;36.55;99349.47;4950847;28;20050;-95
2024/02/22 16:06:27;;;;;;;10.38;5.05;;;;;;;12.78;36.89;99338.75;4933339;28;20042;-96
2024/02/22 16:08:55;;;;;;;9.68;4.03;;;;;;;12.72;37.18;99350.69;4932318;28;20029;-96
2024/02/22 16:11:22;;;;;;;12.13;4.28;;;;;;;12.60;37.62;99342.97;4920490;28;20034;-96
2024/02/22 16:13:47;;;;;;;10.45;4.72;;;;;;;12.52;37.95;99341.69;4936023;28;20121;-96
2024/02/22 16:16:17;;;;;;;15.88;4.47;;;;;;;12.36;38.43;99332.06;4938973;28;20022;-96
2024/02/22 16:18:46;;;;;;;14.05;4.75;;;;;;;12.30;39.38;99341.28;4933053;28;20045;-96
2024/02/22 16:21:17;;;;;;;21.00;5.18;;;;;;;12.18;39.58;99336.28;4928925;29;20031;-95
2024/02/22 16:23:51;;;;;;;8.48;3.78;;;;;;;12.11;38.81;99339.25;4940670;28;20049;-95